Elk Rapids, Michigan
Current Conditions -  °F | °C
As of 4:15 PM on Tuesday 27 Jan 2015 (Local Time) from KACB Reporting Station
Clear Clear  
Wind Chill: 26°   Ceiling: Unl
Heat Index: 26°   Visibility: 10mi
Dew Point:   Wind: 3mph
Humidity: 35%   Direction: 310°NW
Pressure: 30.22"   Gusts: NA
Location:  44.9°N, 85.42°W
Report Text: KACB 272115Z AUTO 31003KT 10SM CLR M04/M17 A3022 RMK AO2 T10361172
Loading
Personal Weather Stations






























Interactive Weather Map New forecast layout! Learn more

10-Day Weather Forecast

Advertisements
Track Severe Weather on mobile